To NAV CANADA Home Page Login to a new session Search on AWWS site Feedback and Comments Disclaimer Vers la page française équivalente Tips FAQ What's new on the site To the Forecasts and Observations / NOTAM section To "File a Flight Plan" website Publications and other links Update of the User's profile FIC Telephone Numbers My Weather Data Folder Route Weather Data Regional Weather Data Local Weather Data To the Forecasts and Observations / NOTAM section
Request Generated 05/25/2016 at 22:36:04 UTC . Weather information available at that time is displayed.

METAR/TAF

SCHEFFERVILLE/QC    (show WxCam)

METAR CYKL 252200Z AUTO 07005KT 8SM CLR 06/M07 A3014 RMK SLP236=
METAR CYKL 252100Z AUTO 06009KT 030V120 9SM CLR 06/M06 A3013 RMK
SLP231=
SPECI CYKL 252047Z AUTO 08008KT 030V120 7SM CLR 06/M06 A3013 RMK
SLP231=
SPECI CYKL 252045Z AUTO 08007KT 030V120 5SM HZ CLR 06/M06 A3013 RMK
SLP231=
METAR CYKL 252000Z AUTO 07004KT 020V140 9SM CLR 05/M06 A3013 RMK
SLP232=

TAF CYKL 251938Z 2520/2608 02005KT P6SM FEW030 SCT200
RMK FCST BASED ON AUTO OBS. NXT FCST BY 260200Z=
Your time UTC time
Weather data provided by Environment Canada and NAV CANADA